Time;durP1;ratioP1;P1;durP2;ratioP2;P2;SDS_P1;SDS_P2;PMS_P1;PMS_P2;Temp;Humidity;BMP_temperature;BMP_pressure;BME280_temperature;BME280_humidity;BME280_pressure;Samples;Min_cycle;Max_cycle;Signal;HPM_P1;HPM_P2
2021/09/03 00:01:46;;;;;;;9.07;6.03;;;;;;;12.47;100.00;95483.38;5014316;28;20068;-57
2021/09/03 00:04:17;;;;;;;12.30;6.07;;;;;;;12.48;100.00;95478.78;5015150;28;20017;-55
2021/09/03 00:06:46;;;;;;;9.55;6.65;;;;;;;12.46;100.00;95484.44;4997452;28;20567;-56
2021/09/03 00:09:13;;;;;;;12.05;6.50;;;;;;;12.39;100.00;95475.03;4994525;28;20045;-57
2021/09/03 00:11:42;;;;;;;10.00;6.22;;;;;;;12.28;100.00;95479.59;5007430;28;20121;-57
2021/09/03 00:14:14;;;;;;;10.48;6.18;;;;;;;12.19;100.00;95475.81;5005752;28;20031;-57
2021/09/03 00:16:39;;;;;;;10.77;6.28;;;;;;;12.08;100.00;95474.16;4987240;28;20045;-56
2021/09/03 00:19:14;;;;;;;9.13;5.80;;;;;;;11.95;100.00;95469.31;5029455;28;20605;-57
2021/09/03 00:21:42;;;;;;;8.85;6.07;;;;;;;11.81;100.00;95471.66;5013861;28;20388;-60
2021/09/03 00:24:20;;;;;;;8.55;6.60;;;;;;;11.73;100.00;95467.59;5012453;28;20048;-58
2021/09/03 00:26:46;;;;;;;9.30;6.00;;;;;;;11.71;100.00;95472.38;5013863;28;20022;-62
2021/09/03 00:29:12;;;;;;;9.48;6.30;;;;;;;11.68;100.00;95474.78;5014049;28;20511;-55
2021/09/03 00:31:40;;;;;;;10.90;6.30;;;;;;;11.67;100.00;95476.66;5014181;28;20061;-59
2021/09/03 00:34:05;;;;;;;13.18;6.30;;;;;;;11.70;100.00;95486.88;5013650;28;20069;-58
2021/09/03 00:36:31;;;;;;;11.18;6.53;;;;;;;11.72;100.00;95483.91;5014053;28;20030;-58
2021/09/03 00:38:56;;;;;;;10.07;6.35;;;;;;;11.77;100.00;95497.38;5012668;28;20026;-58
2021/09/03 00:41:22;;;;;;;9.68;6.95;;;;;;;11.80;100.00;95489.63;5014127;28;20033;-60
2021/09/03 00:43:50;;;;;;;9.10;5.57;;;;;;;11.78;100.00;95497.09;5013310;28;20507;-57
2021/09/03 00:46:16;;;;;;;11.38;5.68;;;;;;;11.73;100.00;95505.16;5014757;28;20555;-57
2021/09/03 00:48:42;;;;;;;7.55;5.60;;;;;;;11.62;100.00;95506.16;5013696;28;20101;-59
2021/09/03 00:51:07;;;;;;;10.75;6.30;;;;;;;11.51;100.00;95510.69;5013929;28;20034;-53
2021/09/03 00:53:37;;;;;;;7.82;5.82;;;;;;;11.45;100.00;95503.66;5013365;28;20093;-56
2021/09/03 00:56:03;;;;;;;10.10;6.18;;;;;;;11.40;100.00;95500.97;5013571;28;20035;-56
2021/09/03 00:58:28;;;;;;;10.35;6.05;;;;;;;11.34;100.00;95504.66;5013552;28;20033;-59
2021/09/03 01:00:54;;;;;;;9.63;6.18;;;;;;;11.30;100.00;95509.75;5013482;28;20389;-61
2021/09/03 01:03:19;;;;;;;9.32;6.18;;;;;;;11.26;100.00;95505.94;5016352;28;20033;-56
2021/09/03 01:05:48;;;;;;;11.20;6.82;;;;;;;11.26;100.00;95505.13;5014937;28;20048;-56
2021/09/03 01:08:16;;;;;;;10.00;6.20;;;;;;;11.25;100.00;95508.88;5015605;28;20061;-62
2021/09/03 01:10:47;;;;;;;11.65;6.57;;;;;;;11.23;100.00;95514.50;5004315;28;20028;-62
2021/09/03 01:13:20;;;;;;;12.02;6.85;;;;;;;11.29;100.00;95518.06;5010939;28;20194;-62
2021/09/03 01:15:48;;;;;;;11.30;6.90;;;;;;;11.29;100.00;95518.06;5010292;28;20050;-62
2021/09/03 01:18:17;;;;;;;10.75;6.82;;;;;;;11.26;100.00;95521.22;4999770;28;20397;-62
2021/09/03 01:20:45;;;;;;;11.30;6.75;;;;;;;11.25;100.00;95514.25;5013912;28;20030;-63
2021/09/03 01:23:10;;;;;;;13.25;7.43;;;;;;;11.24;100.00;95521.50;5012638;28;20036;-61
2021/09/03 01:25:38;;;;;;;9.80;6.38;;;;;;;11.21;100.00;95513.16;5009459;28;20030;-62
2021/09/03 01:28:09;;;;;;;9.90;6.80;;;;;;;11.20;100.00;95523.09;5014002;28;20366;-63
2021/09/03 01:30:59;;;;;;;9.88;6.75;;;;;;;11.18;100.00;95510.97;5012640;28;20029;-62
2021/09/03 01:33:25;;;;;;;10.15;6.75;;;;;;;11.10;100.00;95512.28;5013839;28;20026;-63
2021/09/03 01:35:53;;;;;;;10.70;7.07;;;;;;;11.04;100.00;95505.25;5013398;28;20032;-62
2021/09/03 01:38:25;;;;;;;12.27;7.18;;;;;;;11.08;100.00;95506.38;5013693;28;20032;-63
2021/09/03 01:40:53;;;;;;;11.15;6.28;;;;;;;11.09;100.00;95509.88;5013340;28;20022;-62
2021/09/03 01:43:22;;;;;;;9.30;6.82;;;;;;;11.14;100.00;95504.53;5013626;28;20232;-62
2021/09/03 01:45:58;;;;;;;11.00;7.13;;;;;;;11.19;100.00;95513.44;5013873;28;20022;-63
2021/09/03 01:48:25;;;;;;;10.65;6.60;;;;;;;11.23;100.00;95511.03;5013365;28;20025;-62
2021/09/03 01:50:54;;;;;;;9.30;6.35;;;;;;;11.23;100.00;95497.63;5013439;28;20105;-63
2021/09/03 01:53:26;;;;;;;11.98;7.00;;;;;;;11.21;100.00;95494.41;5013338;28;20017;-63
2021/09/03 01:56:02;;;;;;;10.55;6.95;;;;;;;11.23;100.00;95492.25;5012073;28;20044;-63
2021/09/03 01:58:28;;;;;;;9.02;6.22;;;;;;;11.25;100.00;95488.25;5013192;28;20038;-63
2021/09/03 02:00:53;;;;;;;11.48;6.75;;;;;;;11.29;100.00;95486.69;5013177;28;20488;-63
2021/09/03 02:03:19;;;;;;;11.15;7.00;;;;;;;11.40;100.00;95486.75;5012230;28;20026;-63
2021/09/03 02:05:47;;;;;;;8.73;6.47;;;;;;;11.43;100.00;95489.69;5013208;28;20050;-62
2021/09/03 02:08:12;;;;;;;14.73;7.05;;;;;;;11.52;100.00;95488.16;5013081;28;20022;-62
2021/09/03 02:10:47;;;;;;;10.70;6.80;;;;;;;11.57;100.00;95492.72;5013238;28;20316;-63
2021/09/03 02:13:12;;;;;;;9.93;6.63;;;;;;;11.58;100.00;95492.44;5012849;28;20022;-62
2021/09/03 02:15:38;;;;;;;11.90;6.70;;;;;;;11.53;100.00;95497.00;5012889;28;20026;-62
2021/09/03 02:18:03;;;;;;;13.48;6.50;;;;;;;11.41;100.00;95496.41;5012262;28;20049;-62
2021/09/03 02:20:29;;;;;;;10.15;6.65;;;;;;;11.26;100.00;95486.38;5011514;28;20021;-61
2021/09/03 02:22:54;;;;;;;10.27;6.43;;;;;;;11.12;100.00;95479.84;5012934;28;20022;-62
2021/09/03 02:25:22;;;;;;;9.82;6.38;;;;;;;10.98;100.00;95474.94;5012818;28;20025;-62
2021/09/03 02:27:53;;;;;;;8.50;6.55;;;;;;;10.87;100.00;95489.34;5012671;28;20412;-62
2021/09/03 02:30:25;;;;;;;11.30;6.72;;;;;;;10.71;100.00;95490.25;5012749;28;20022;-62
2021/09/03 02:32:51;;;;;;;9.60;6.70;;;;;;;10.61;100.00;95477.59;5011858;28;20044;-62
2021/09/03 02:35:37;;;;;;;10.65;6.88;;;;;;;10.56;100.00;95484.78;5012610;28;20469;-62
2021/09/03 02:38:02;;;;;;;9.88;7.03;;;;;;;10.47;100.00;95487.13;5012324;28;20034;-61
2021/09/03 02:40:40;;;;;;;9.25;6.40;;;;;;;10.39;100.00;95484.88;5012500;28;20038;-62
2021/09/03 02:43:06;;;;;;;11.32;6.40;;;;;;;10.30;100.00;95491.75;5012388;28;20022;-62
2021/09/03 02:45:31;;;;;;;11.48;6.82;;;;;;;10.20;100.00;95486.25;5031161;28;20499;-62
2021/09/03 02:48:04;;;;;;;9.18;6.45;;;;;;;10.15;100.00;95479.00;5032313;28;20594;-62
2021/09/03 02:50:35;;;;;;;10.77;6.68;;;;;;;10.15;100.00;95492.38;5032295;28;20069;-62
2021/09/03 02:53:00;;;;;;;11.13;6.75;;;;;;;10.13;100.00;95494.50;5031923;28;20448;-62
2021/09/03 02:55:31;;;;;;;10.95;6.75;;;;;;;10.07;100.00;95490.97;5032122;28;20109;-62
2021/09/03 02:57:57;;;;;;;11.13;7.35;;;;;;;10.00;100.00;95498.41;5014396;28;20033;-62
2021/09/03 03:00:23;;;;;;;12.15;6.88;;;;;;;10.01;100.00;95502.69;5032014;28;20076;-62
2021/09/03 03:02:56;;;;;;;10.90;7.03;;;;;;;10.05;100.00;95502.97;5032068;28;20025;-61
2021/09/03 03:05:24;;;;;;;12.05;7.35;;;;;;;10.01;100.00;95500.00;5013663;28;20030;-62
2021/09/03 03:08:03;;;;;;;8.43;6.45;;;;;;;9.95;100.00;95503.66;5032060;28;20022;-62
2021/09/03 03:10:34;;;;;;;8.13;6.07;;;;;;;9.88;100.00;95495.84;4994752;28;20032;-62
2021/09/03 03:13:19;;;;;;;11.23;7.38;;;;;;;9.86;100.00;95497.13;5012291;28;20377;-62
2021/09/03 03:15:48;;;;;;;8.45;6.60;;;;;;;9.82;100.00;95493.34;5010993;28;20022;-62
2021/09/03 03:18:16;;;;;;;12.73;7.72;;;;;;;9.75;100.00;95498.88;5012440;28;20026;-63
2021/09/03 03:20:45;;;;;;;9.35;6.75;;;;;;;9.67;100.00;95503.88;5012115;28;20465;-62
2021/09/03 03:23:17;;;;;;;10.32;7.07;;;;;;;9.61;100.00;95508.34;5012278;28;20377;-62
2021/09/03 03:25:47;;;;;;;11.00;6.97;;;;;;;9.61;100.00;95518.25;5012631;28;20026;-63
2021/09/03 03:28:18;;;;;;;11.98;7.15;;;;;;;9.54;100.00;95516.53;5010793;28;20503;-62
2021/09/03 03:30:44;;;;;;;12.93;7.40;;;;;;;9.49;100.00;95521.84;5013914;28;20044;-62
2021/09/03 03:33:09;;;;;;;10.80;6.82;;;;;;;9.44;100.00;95513.75;5015728;28;20022;-62
2021/09/03 03:35:37;;;;;;;12.80;6.80;;;;;;;9.47;100.00;95507.09;5014653;28;20076;-62
2021/09/03 03:38:02;;;;;;;8.90;6.43;;;;;;;9.59;100.00;95502.44;5014656;28;20026;-62
2021/09/03 03:40:34;;;;;;;11.57;7.47;;;;;;;9.67;100.00;95499.34;5015792;28;20397;-62
2021/09/03 03:43:02;;;;;;;11.68;7.50;;;;;;;9.67;100.00;95493.19;5015749;28;20030;-62
2021/09/03 03:45:33;;;;;;;11.38;7.03;;;;;;;9.63;100.00;95492.06;5014429;28;20029;-62
2021/09/03 03:48:12;;;;;;;12.20;7.10;;;;;;;9.57;100.00;95488.53;5015722;28;20029;-62
2021/09/03 03:50:38;;;;;;;11.02;7.28;;;;;;;9.61;100.00;95478.13;5015777;28;20366;-62
2021/09/03 03:53:03;;;;;;;22.17;9.70;;;;;;;9.60;100.00;95469.28;5014192;28;20037;-62
2021/09/03 03:55:32;;;;;;;11.82;6.78;;;;;;;9.62;100.00;95466.38;5015472;28;20064;-62
2021/09/03 03:57:57;;;;;;;12.95;8.15;;;;;;;9.56;100.00;95466.31;5014204;28;20611;-62
2021/09/03 04:00:22;;;;;;;10.10;7.22;;;;;;;9.48;100.00;95456.03;5015332;28;20034;-62
2021/09/03 04:02:48;;;;;;;11.65;7.38;;;;;;;9.40;100.00;95453.00;5015385;28;20037;-62
2021/09/03 04:05:13;;;;;;;13.00;7.93;;;;;;;9.33;100.00;95450.50;5015169;28;20543;-63
2021/09/03 04:07:38;;;;;;;10.68;7.15;;;;;;;9.26;100.00;95449.88;5015285;28;20030;-61
2021/09/03 04:10:05;;;;;;;12.70;8.20;;;;;;;9.24;100.00;95454.66;5000106;28;20049;-62
2021/09/03 04:12:33;;;;;;;10.32;7.25;;;;;;;9.24;100.00;95460.81;5010664;28;20476;-62
2021/09/03 04:15:05;;;;;;;10.75;7.00;;;;;;;9.18;100.00;95445.75;5015080;28;20053;-62
2021/09/03 04:17:31;;;;;;;12.82;7.30;;;;;;;9.10;100.00;95448.03;5015218;28;20034;-62
2021/09/03 04:19:56;;;;;;;9.30;7.05;;;;;;;9.05;100.00;95447.97;5015023;28;20033;-62
2021/09/03 04:22:21;;;;;;;11.15;7.38;;;;;;;9.03;100.00;95450.09;5014996;28;20029;-62
2021/09/03 04:24:50;;;;;;;10.65;7.13;;;;;;;9.03;100.00;95445.56;5013763;28;20030;-62
2021/09/03 04:27:18;;;;;;;10.95;7.22;;;;;;;9.14;100.00;95438.50;5015026;28;20033;-62
2021/09/03 04:29:46;;;;;;;11.52;7.50;;;;;;;9.29;100.00;95436.81;4997460;28;20025;-62
2021/09/03 04:32:18;;;;;;;12.20;8.02;;;;;;;9.38;100.00;95431.84;5014905;28;20026;-62
2021/09/03 04:34:43;;;;;;;15.15;8.27;;;;;;;9.39;100.00;95433.47;5013492;28;20477;-62
2021/09/03 04:37:09;;;;;;;13.63;7.60;;;;;;;9.37;100.00;95426.75;5014574;28;20025;-62
2021/09/03 04:39:37;;;;;;;9.70;7.10;;;;;;;9.33;100.00;95426.44;5013508;28;20042;-62
2021/09/03 04:42:06;;;;;;;13.23;8.60;;;;;;;9.34;100.00;95421.91;5013963;28;20057;-62
2021/09/03 04:44:31;;;;;;;17.10;8.27;;;;;;;9.33;100.00;95421.09;5014963;28;20045;-62
2021/09/03 04:47:03;;;;;;;14.25;8.35;;;;;;;9.29;100.00;95425.31;5015150;28;20484;-62
2021/09/03 04:49:31;;;;;;;12.98;8.00;;;;;;;9.27;100.00;95425.56;5014584;28;20053;-62
2021/09/03 04:52:00;;;;;;;14.00;8.57;;;;;;;9.25;100.00;95424.22;5014598;28;20033;-62
2021/09/03 04:54:27;;;;;;;13.52;8.85;;;;;;;9.23;100.00;95421.78;5014313;28;20056;-62
2021/09/03 04:56:53;;;;;;;13.90;8.18;;;;;;;9.20;100.00;95427.59;5014438;28;20438;-62
2021/09/03 04:59:18;;;;;;;13.25;8.07;;;;;;;9.16;100.00;95417.66;5014302;28;20137;-62
2021/09/03 05:01:49;;;;;;;18.48;8.73;;;;;;;9.18;100.00;95426.25;5014438;28;20021;-61
2021/09/03 05:04:17;;;;;;;12.90;7.93;;;;;;;9.19;100.00;95427.84;5014311;28;20038;-61
2021/09/03 05:06:45;;;;;;;14.27;8.63;;;;;;;9.20;100.00;95419.59;5012879;28;20451;-62
2021/09/03 05:09:10;;;;;;;12.82;8.93;;;;;;;9.24;100.00;95426.06;5013985;28;20488;-62
2021/09/03 05:11:42;;;;;;;13.27;8.18;;;;;;;9.24;100.00;95412.72;5014157;28;20030;-62
2021/09/03 05:14:07;;;;;;;11.95;8.15;;;;;;;9.27;100.00;95420.22;5012792;28;20545;-62
2021/09/03 05:16:33;;;;;;;18.00;9.55;;;;;;;9.27;100.00;95414.88;5013834;28;20033;-62
2021/09/03 05:19:21;;;;;;;15.95;8.65;;;;;;;9.38;100.00;95418.50;5013962;28;20022;-62
2021/09/03 05:21:47;;;;;;;18.00;9.60;;;;;;;9.50;100.00;95416.50;5014061;28;20025;-62
2021/09/03 05:24:32;;;;;;;13.32;8.88;;;;;;;9.61;100.00;95417.41;5012590;28;20061;-61
2021/09/03 05:27:01;;;;;;;14.52;9.52;;;;;;;9.69;100.00;95413.50;5012234;28;20029;-62
2021/09/03 05:29:26;;;;;;;13.30;9.23;;;;;;;9.78;100.00;95410.13;5012562;28;20144;-62
2021/09/03 05:31:52;;;;;;;12.95;8.95;;;;;;;9.84;100.00;95401.09;5012456;28;20034;-62
2021/09/03 05:34:17;;;;;;;14.73;8.75;;;;;;;9.89;100.00;95405.69;5008005;28;20034;-60
2021/09/03 05:36:42;;;;;;;13.77;9.07;;;;;;;9.92;100.00;95401.69;4989957;28;20045;-62
2021/09/03 05:39:10;;;;;;;14.00;8.82;;;;;;;9.93;100.00;95396.09;5010305;28;20033;-62
2021/09/03 05:41:36;;;;;;;13.27;8.95;;;;;;;9.96;100.00;95392.91;4996159;28;20033;-62
2021/09/03 05:44:01;;;;;;;14.50;8.05;;;;;;;10.01;100.00;95389.47;5006846;28;20029;-63
2021/09/03 05:46:29;;;;;;;13.45;7.63;;;;;;;10.09;100.00;95389.84;5008924;28;20460;-62
2021/09/03 05:48:54;;;;;;;15.50;9.35;;;;;;;10.25;100.00;95377.41;4994791;28;20568;-62
2021/09/03 05:51:20;;;;;;;14.13;9.45;;;;;;;10.48;100.00;95373.56;4993896;28;20029;-62
2021/09/03 05:53:50;;;;;;;15.07;9.88;;;;;;;10.74;100.00;95369.19;4999164;28;20018;-62
2021/09/03 05:56:18;;;;;;;18.27;11.32;;;;;;;11.01;100.00;95361.84;5002738;28;20424;-62
2021/09/03 05:58:43;;;;;;;16.77;12.00;;;;;;;11.29;100.00;95362.53;4996989;28;20435;-61
2021/09/03 06:01:11;;;;;;;22.25;13.05;;;;;;;11.55;100.00;95356.16;5009788;28;20017;-60
2021/09/03 06:03:36;;;;;;;19.75;12.38;;;;;;;11.76;100.00;95353.53;5009636;28;20030;-63
2021/09/03 06:06:02;;;;;;;18.88;10.93;;;;;;;11.88;100.00;95356.81;5002425;28;20042;-63
2021/09/03 06:08:27;;;;;;;18.17;9.30;;;;;;;11.99;100.00;95347.69;5010497;28;20026;-62
2021/09/03 06:10:53;;;;;;;16.48;8.90;;;;;;;12.10;100.00;95341.25;4989188;28;20014;-62
2021/09/03 06:13:20;;;;;;;21.88;9.07;;;;;;;12.24;100.00;95338.84;5008538;28;20017;-61
2021/09/03 06:15:48;;;;;;;13.95;8.52;;;;;;;12.36;100.00;95341.25;4988354;28;20041;-62
2021/09/03 06:18:16;;;;;;;13.93;8.25;;;;;;;12.62;100.00;95340.16;5009929;28;20034;-62
2021/09/03 06:20:41;;;;;;;13.32;8.88;;;;;;;12.94;100.00;95347.09;5000150;28;20067;-61
2021/09/03 06:23:09;;;;;;;13.90;9.45;;;;;;;13.26;100.00;95346.75;5012079;28;20476;-62
2021/09/03 06:25:34;;;;;;;15.55;9.05;;;;;;;13.58;100.00;95346.34;5011495;28;20032;-63
2021/09/03 06:28:00;;;;;;;12.18;8.43;;;;;;;13.88;100.00;95346.16;5012844;28;20481;-63
2021/09/03 06:30:30;;;;;;;12.18;8.50;;;;;;;14.21;100.00;95333.81;5011459;28;20026;-62
2021/09/03 06:32:55;;;;;;;13.27;7.68;;;;;;;14.44;100.00;95326.94;5012790;28;20026;-63
2021/09/03 06:35:21;;;;;;;12.02;8.02;;;;;;;14.71;100.00;95318.31;5011337;28;20034;-62
2021/09/03 06:37:46;;;;;;;14.30;8.68;;;;;;;15.02;100.00;95307.22;5012557;28;20068;-63
2021/09/03 06:40:14;;;;;;;11.70;8.18;;;;;;;15.31;100.00;95299.06;5011294;28;20030;-63
2021/09/03 06:42:42;;;;;;;11.60;7.78;;;;;;;15.55;100.00;95269.31;5012535;28;20041;-63
2021/09/03 06:45:09;;;;;;;10.45;7.05;;;;;;;15.76;100.00;95246.34;5011217;28;20072;-63
2021/09/03 06:47:34;;;;;;;13.15;7.97;;;;;;;15.92;100.00;95236.91;4975684;28;20117;-63
2021/09/03 06:50:00;;;;;;;13.70;8.27;;;;;;;16.09;100.00;95197.75;5011098;28;20465;-62
2021/09/03 06:52:28;;;;;;;11.98;7.97;;;;;;;16.28;100.00;95163.34;5012568;28;20416;-63
2021/09/03 06:54:58;;;;;;;13.70;8.20;;;;;;;16.46;100.00;95100.25;5012398;28;20080;-63
2021/09/03 06:57:24;;;;;;;10.45;7.30;;;;;;;16.61;100.00;95063.22;5011250;28;20119;-63
2021/09/03 06:59:52;;;;;;;12.07;7.45;;;;;;;16.65;100.00;95037.97;5012254;28;20116;-63
2021/09/03 07:02:17;;;;;;;12.80;8.15;;;;;;;16.79;100.00;95016.31;5011339;28;20030;-63
2021/09/03 07:04:43;;;;;;;10.77;7.28;;;;;;;16.88;100.00;95009.06;5013765;28;20022;-63
2021/09/03 07:07:11;;;;;;;9.65;7.07;;;;;;;17.02;100.00;94998.97;5016860;28;20048;-63
2021/09/03 07:09:36;;;;;;;11.50;7.68;;;;;;;17.14;100.00;95001.13;5016365;28;20465;-64
2021/09/03 07:12:04;;;;;;;11.98;7.03;;;;;;;17.37;100.00;95007.38;4995573;28;20041;-63
2021/09/03 07:14:31;;;;;;;12.48;8.27;;;;;;;17.44;100.00;95012.31;5013890;28;20071;-63
2021/09/03 07:16:59;;;;;;;10.23;7.40;;;;;;;17.67;100.00;95020.09;5014965;28;20026;-63
2021/09/03 07:19:24;;;;;;;13.18;8.00;;;;;;;17.87;100.00;95045.88;5015902;28;20062;-62
2021/09/03 07:21:52;;;;;;;11.27;7.07;;;;;;;18.02;100.00;95062.84;5016314;28;20029;-64
2021/09/03 07:24:20;;;;;;;9.38;7.25;;;;;;;18.23;100.00;95072.03;4990106;28;20437;-64
2021/09/03 07:26:45;;;;;;;10.68;7.32;;;;;;;18.53;100.00;95101.00;5029181;28;20025;-63
2021/09/03 07:29:15;;;;;;;10.80;7.82;;;;;;;18.78;100.00;95134.81;5036128;28;20024;-63
2021/09/03 07:31:41;;;;;;;11.32;7.40;;;;;;;19.00;100.00;95149.38;5004429;28;20022;-63
2021/09/03 07:34:08;;;;;;;9.70;7.40;;;;;;;19.16;100.00;95174.97;5000536;28;20491;-63
2021/09/03 07:36:34;;;;;;;9.38;6.82;;;;;;;19.36;100.00;95204.22;5002930;28;20069;-63
2021/09/03 07:39:00;;;;;;;9.25;7.20;;;;;;;19.46;100.00;95229.50;5004060;28;20032;-63
2021/09/03 07:41:25;;;;;;;9.80;7.15;;;;;;;19.63;100.00;95245.84;5008842;28;20026;-62
2021/09/03 07:43:51;;;;;;;9.80;6.90;;;;;;;19.69;100.00;95285.34;5013635;28;20041;-63
2021/09/03 07:46:18;;;;;;;12.75;7.45;;;;;;;19.89;100.00;95301.03;5011283;28;20029;-63
2021/09/03 07:48:44;;;;;;;10.65;7.30;;;;;;;20.02;100.00;95323.75;5012850;28;20026;-64
2021/09/03 07:51:09;;;;;;;10.80;7.40;;;;;;;19.84;100.00;95344.66;5013863;28;20032;-64
2021/09/03 07:53:37;;;;;;;10.20;6.95;;;;;;;20.02;100.00;95336.53;5014209;28;20469;-63
2021/09/03 07:56:04;;;;;;;10.13;7.05;;;;;;;20.13;100.00;95348.72;5014311;28;20022;-62
2021/09/03 07:58:32;;;;;;;10.55;7.50;;;;;;;20.21;100.00;95358.81;5017629;28;20497;-63
2021/09/03 08:00:57;;;;;;;11.50;7.57;;;;;;;20.35;100.00;95370.31;5005276;28;20026;-63
2021/09/03 08:03:25;;;;;;;13.07;7.95;;;;;;;20.42;100.00;95383.47;5015673;28;20440;-64
2021/09/03 08:05:52;;;;;;;10.60;7.18;;;;;;;20.49;100.00;95391.97;5015264;28;20517;-63
2021/09/03 08:08:18;;;;;;;9.43;7.70;;;;;;;20.68;100.00;95389.72;5015511;28;20053;-63
2021/09/03 08:10:44;;;;;;;8.85;7.13;;;;;;;20.63;100.00;95389.09;5015464;28;20026;-63
2021/09/03 08:13:12;;;;;;;9.27;7.57;;;;;;;20.72;100.00;95408.91;5015474;28;20030;-64
2021/09/03 08:15:38;;;;;;;11.15;7.57;;;;;;;20.87;100.00;95416.63;5012976;28;20041;-63
2021/09/03 08:18:04;;;;;;;9.98;7.43;;;;;;;21.04;100.00;95413.06;5014822;28;20026;-64
2021/09/03 08:20:29;;;;;;;9.90;7.72;;;;;;;21.25;100.00;95432.25;5015108;28;20473;-64
2021/09/03 08:22:55;;;;;;;10.77;7.40;;;;;;;21.48;100.00;95449.22;5015278;28;20021;-63
2021/09/03 08:25:21;;;;;;;9.90;7.32;;;;;;;21.49;100.00;95481.63;5015258;28;20077;-63
2021/09/03 08:27:48;;;;;;;9.02;7.07;;;;;;;21.58;100.00;95500.66;5014330;28;20068;-61
2021/09/03 08:30:19;;;;;;;12.70;7.18;;;;;;;21.71;100.00;95502.41;5014865;28;20436;-62
2021/09/03 08:32:45;;;;;;;8.93;6.75;;;;;;;21.85;100.00;95516.63;5013779;28;20492;-62
2021/09/03 08:35:11;;;;;;;8.73;7.05;;;;;;;22.10;100.00;95508.69;5014950;28;20034;-63
2021/09/03 08:37:37;;;;;;;9.95;7.07;;;;;;;22.20;100.00;95539.13;5014976;28;20101;-62
2021/09/03 08:40:05;;;;;;;9.75;7.35;;;;;;;22.21;100.00;95534.47;5012918;28;20045;-64
2021/09/03 08:42:35;;;;;;;9.00;6.65;;;;;;;22.30;100.00;95546.16;5003637;28;20036;-64
2021/09/03 08:45:07;;;;;;;8.45;6.88;;;;;;;22.62;100.00;95536.53;5013169;28;20076;-64
2021/09/03 08:47:33;;;;;;;10.23;7.40;;;;;;;22.66;100.00;95556.56;5013703;28;20032;-65
2021/09/03 08:49:58;;;;;;;10.05;7.20;;;;;;;22.71;100.00;95556.38;5014601;28;20022;-64
2021/09/03 08:52:26;;;;;;;9.43;7.07;;;;;;;22.84;100.00;95592.81;5014637;28;20033;-64
2021/09/03 08:54:52;;;;;;;12.18;7.72;;;;;;;23.04;100.00;95608.44;5014595;28;20064;-64
2021/09/03 08:57:17;;;;;;;9.55;6.93;;;;;;;23.01;100.00;95606.38;5014058;28;20452;-64
2021/09/03 08:59:43;;;;;;;9.48;7.25;;;;;;;23.05;100.00;95620.16;5014300;28;20049;-64
2021/09/03 09:02:10;;;;;;;13.35;8.25;;;;;;;22.75;100.00;95606.47;5014547;28;20370;-64
2021/09/03 09:04:40;;;;;;;10.82;7.40;;;;;;;22.74;100.00;95606.81;4996809;28;20030;-64
2021/09/03 09:07:06;;;;;;;10.98;7.45;;;;;;;22.87;100.00;95605.78;5014199;28;20092;-64
2021/09/03 09:09:33;;;;;;;9.88;6.80;;;;;;;23.03;100.00;95606.84;5014333;28;20392;-63
2021/09/03 09:12:07;;;;;;;12.82;8.32;;;;;;;23.24;100.00;95619.72;5029445;28;20428;-64
2021/09/03 09:15:17;;;;;;;10.35;7.57;;;;;;;23.12;100.00;95623.19;5029730;28;20029;-63
2021/09/03 09:17:46;;;;;;;8.88;6.95;;;;;;;23.44;100.00;95635.31;5012104;28;20069;-64
2021/09/03 09:20:14;;;;;;;9.90;6.95;;;;;;;23.92;100.00;95647.66;5014098;28;20034;-64
2021/09/03 09:23:02;;;;;;;9.25;6.82;;;;;;;24.14;100.00;95682.06;4996716;28;20634;-64
2021/09/03 09:25:33;;;;;;;10.23;6.95;;;;;;;23.97;100.00;95677.53;5014014;28;20120;-64
2021/09/03 09:28:14;;;;;;;7.80;6.85;;;;;;;24.09;100.00;95661.16;5013905;28;20030;-64
2021/09/03 09:30:42;;;;;;;8.88;6.93;;;;;;;24.46;100.00;95653.91;5014108;28;20022;-64
2021/09/03 09:33:18;;;;;;;11.07;7.28;;;;;;;24.66;100.00;95679.63;5012906;28;20032;-64
2021/09/03 09:35:48;;;;;;;9.77;8.35;;;;;;;24.86;100.00;95699.84;5014021;28;20052;-64
2021/09/03 09:38:19;;;;;;;11.13;7.57;;;;;;;24.98;100.00;95702.59;5014084;28;20025;-64
2021/09/03 09:40:56;;;;;;;11.43;7.68;;;;;;;25.28;100.00;95681.25;5012955;28;20021;-64
2021/09/03 09:43:37;;;;;;;9.68;7.13;;;;;;;25.32;100.00;95715.06;5014003;28;20393;-64
2021/09/03 09:46:15;;;;;;;11.60;8.25;;;;;;;25.16;100.00;95714.16;5013895;28;20053;-64
2021/09/03 09:48:49;;;;;;;9.65;7.47;;;;;;;25.29;100.00;95701.22;5014071;28;20032;-64
2021/09/03 09:51:29;;;;;;;11.63;8.05;;;;;;;25.64;100.00;95696.06;5013819;28;20534;-64
2021/09/03 09:54:10;;;;;;;10.63;7.85;;;;;;;25.83;100.00;95704.47;5014070;28;20026;-64
2021/09/03 09:56:54;;;;;;;13.05;8.23;;;;;;;25.67;100.00;95726.34;5013655;28;20084;-64
2021/09/03 09:59:22;;;;;;;10.30;7.95;;;;;;;25.63;100.00;95730.94;5013754;28;20032;-64
2021/09/03 10:01:51;;;;;;;12.10;8.43;;;;;;;25.57;100.00;95729.56;5013740;28;20510;-64
2021/09/03 10:04:19;;;;;;;12.88;8.05;;;;;;;25.47;100.00;95721.78;5013747;28;20018;-64
2021/09/03 10:06:47;;;;;;;20.38;8.73;;;;;;;25.56;100.00;95725.22;4995909;28;20540;-64
2021/09/03 10:09:16;;;;;;;11.50;8.13;;;;;;;25.70;100.00;95738.59;5013742;28;20022;-64
2021/09/03 10:11:48;;;;;;;13.15;9.38;;;;;;;25.66;100.00;95732.97;5013605;28;20049;-63
2021/09/03 10:14:18;;;;;;;11.05;8.07;;;;;;;25.50;100.00;95737.56;5013678;28;20026;-63
2021/09/03 10:16:51;;;;;;;11.18;8.50;;;;;;;25.80;100.00;95721.66;5013453;28;20417;-64
2021/09/03 10:19:28;;;;;;;9.88;8.18;;;;;;;25.75;100.00;95730.13;5013475;28;20030;-63
2021/09/03 10:22:01;;;;;;;11.45;8.40;;;;;;;25.89;100.00;95721.53;5013516;28;20025;-64
2021/09/03 10:24:29;;;;;;;;;;;;;;;26.14;100.00;95739.50;5013958;28;20045;-64
2021/09/03 10:27:00;;;;;;;10.93;7.75;;;;;;;26.29;100.00;95744.28;5012906;28;20311;-63
2021/09/03 10:29:40;;;;;;;11.55;8.90;;;;;;;26.39;100.00;95754.00;5013095;28;20091;-64
2021/09/03 10:32:10;;;;;;;11.45;8.55;;;;;;;26.52;100.00;95752.78;5012979;28;20030;-64
2021/09/03 10:34:43;;;;;;;11.90;9.00;;;;;;;26.73;100.00;95758.06;5012867;28;20088;-64
2021/09/03 10:37:18;;;;;;;11.82;8.57;;;;;;;26.88;100.00;95756.47;5011334;28;20022;-64
2021/09/03 10:39:51;;;;;;;11.65;8.55;;;;;;;26.48;100.00;95749.13;5012091;28;20025;-64
2021/09/03 10:42:43;;;;;;;11.90;9.35;;;;;;;26.38;100.00;95744.16;5012732;28;20384;-64
2021/09/03 10:45:17;;;;;;;10.57;9.07;;;;;;;26.22;100.00;95737.78;5012598;28;20444;-64
2021/09/03 10:47:47;;;;;;;9.75;7.68;;;;;;;26.27;100.00;95734.78;5012613;28;20030;-64
2021/09/03 10:50:17;;;;;;;12.55;8.60;;;;;;;26.48;100.00;95729.09;5012641;28;20113;-64
2021/09/03 10:56:03;;;;;;;11.82;10.32;;;;;;;27.33;100.00;95764.31;5012410;28;20032;-64
2021/09/03 10:58:30;;;;;;;11.43;9.70;;;;;;;27.49;100.00;95778.09;5011194;28;20022;-64
2021/09/03 11:01:13;;;;;;;9.65;8.60;;;;;;;27.55;100.00;95759.34;5011308;28;20508;-64
2021/09/03 11:03:52;;;;;;;10.55;8.88;;;;;;;27.60;99.13;95779.16;5012639;28;20034;-64
2021/09/03 11:06:23;;;;;;;13.88;8.32;;;;;;;27.80;100.00;95759.97;5012408;28;20061;-64
2021/09/03 11:08:49;;;;;;;8.93;7.88;;;;;;;27.94;95.53;95788.59;5012519;28;20033;-64
2021/09/03 11:11:36;;;;;;;12.32;9.32;;;;;;;28.06;93.71;95795.16;5012318;28;20018;-64
2021/09/03 11:14:10;;;;;;;12.32;8.82;;;;;;;28.37;94.19;95788.75;5012345;28;20051;-64
2021/09/03 11:16:45;;;;;;;12.25;9.95;;;;;;;28.61;93.13;95788.47;5012528;28;20029;-65
2021/09/03 11:19:18;;;;;;;10.75;7.90;;;;;;;28.48;92.01;95798.84;5012201;28;20033;-65
2021/09/03 11:21:58;;;;;;;8.98;7.90;;;;;;;28.47;90.06;95791.75;5012387;28;20100;-65
2021/09/03 11:24:45;;;;;;;10.98;8.30;;;;;;;28.63;90.68;95791.66;5012342;28;20025;-64
2021/09/03 11:27:13;;;;;;;11.13;9.00;;;;;;;28.64;88.93;95798.75;5012206;28;20100;-64
2021/09/03 11:30:10;;;;;;;12.48;9.25;;;;;;;28.82;86.52;95810.13;5012409;28;20431;-64
2021/09/03 11:32:39;;;;;;;9.57;8.55;;;;;;;28.87;87.65;95801.56;5006746;28;20037;-65
2021/09/03 11:35:21;;;;;;;12.60;9.20;;;;;;;28.93;85.21;95807.63;5010871;28;20022;-64